Time;durP1;ratioP1;P1;durP2;ratioP2;P2;SDS_P1;SDS_P2;PMS_P1;PMS_P2;Temp;Humidity;BMP_temperature;BMP_pressure;BME280_temperature;BME280_humidity;BME280_pressure;Samples;Min_cycle;Max_cycle;Signal;HPM_P1;HPM_P2
2023/07/19 00:01:38;;;;;;;10.8;4.2;;;;;;;;;;;;;
2023/07/19 00:04:08;;;;;;;7.3;4.1;;;;;;;;;;;;;
2023/07/19 00:06:35;;;;;;;10.4;4.2;;;;;;;;;;;;;
2023/07/19 00:08:59;;;;;;;12.8;5;;;;;;;;;;;;;
2023/07/19 00:11:25;;;;;;;9.6;4.3;;;;;;;;;;;;;
2023/07/19 00:13:51;;;;;;;8.2;4;;;;;;;;;;;;;
2023/07/19 00:16:16;;;;;;;12.4;4.5;;;;;;;;;;;;;
2023/07/19 00:18:41;;;;;;;13.4;4.5;;;;;;;;;;;;;
2023/07/19 00:21:06;;;;;;;10.6;4.9;;;;;;;;;;;;;
2023/07/19 00:23:32;;;;;;;11.2;4.6;;;;;;;;;;;;;
2023/07/19 00:25:57;;;;;;;10.6;4.4;;;;;;;;;;;;;
2023/07/19 00:28:23;;;;;;;10.6;4.1;;;;;;;;;;;;;
2023/07/19 00:30:48;;;;;;;10.4;4.3;;;;;;;;;;;;;
2023/07/19 00:33:15;;;;;;;12.7;3.9;;;;;;;;;;;;;
2023/07/19 00:35:41;;;;;;;8.7;4.4;;;;;;;;;;;;;
2023/07/19 00:38:08;;;;;;;11.4;4.6;;;;;;;;;;;;;
2023/07/19 00:40:33;;;;;;;9.6;4.1;;;;;;;;;;;;;
2023/07/19 00:42:59;;;;;;;9.8;3.9;;;;;;;;;;;;;
2023/07/19 00:45:24;;;;;;;8.6;4.1;;;;;;;;;;;;;
2023/07/19 00:47:51;;;;;;;7.9;4;;;;;;;;;;;;;
2023/07/19 00:50:16;;;;;;;10.1;4.2;;;;;;;;;;;;;
2023/07/19 00:52:41;;;;;;;7.5;4;;;;;;;;;;;;;
2023/07/19 00:55:06;;;;;;;9.4;4.3;;;;;;;;;;;;;
2023/07/19 00:57:34;;;;;;;8.5;4.6;;;;;;;;;;;;;
2023/07/19 00:59:59;;;;;;;10.9;4.5;;;;;;;;;;;;;
2023/07/19 01:02:26;;;;;;;11.1;4.9;;;;;;;;;;;;;
2023/07/19 01:04:51;;;;;;;9.9;4.2;;;;;;;;;;;;;
2023/07/19 01:07:16;;;;;;;13.8;4.7;;;;;;;;;;;;;
2023/07/19 01:09:41;;;;;;;9.3;4.4;;;;;;;;;;;;;
2023/07/19 01:12:09;;;;;;;9.8;4.3;;;;;;;;;;;;;
2023/07/19 01:14:34;;;;;;;12.4;4.4;;;;;;;;;;;;;
2023/07/19 01:17:01;;;;;;;8.7;4.4;;;;;;;;;;;;;
2023/07/19 01:19:26;;;;;;;10.1;4.9;;;;;;;;;;;;;
2023/07/19 01:21:53;;;;;;;14.4;5.1;;;;;;;;;;;;;
2023/07/19 01:24:18;;;;;;;13.5;5;;;;;;;;;;;;;
2023/07/19 01:26:43;;;;;;;11.9;5.6;;;;;;;;;;;;;
2023/07/19 01:29:08;;;;;;;10.3;4.6;;;;;;;;;;;;;
2023/07/19 01:31:33;;;;;;;10.9;4.7;;;;;;;;;;;;;
2023/07/19 01:33:58;;;;;;;9.4;4.7;;;;;;;;;;;;;
2023/07/19 01:36:27;;;;;;;9.6;4.5;;;;;;;;;;;;;
2023/07/19 01:38:52;;;;;;;12.7;5.5;;;;;;;;;;;;;
2023/07/19 01:41:18;;;;;;;7.5;4.6;;;;;;;;;;;;;
2023/07/19 01:43:43;;;;;;;12;4.8;;;;;;;;;;;;;
2023/07/19 01:46:09;;;;;;;10.1;4.6;;;;;;;;;;;;;
2023/07/19 01:48:34;;;;;;;11.6;4.6;;;;;;;;;;;;;
2023/07/19 01:50:59;;;;;;;9.9;4.5;;;;;;;;;;;;;
2023/07/19 01:53:25;;;;;;;9.4;5;;;;;;;;;;;;;
2023/07/19 01:55:50;;;;;;;9.2;5;;;;;;;;;;;;;
2023/07/19 01:58:15;;;;;;;10.4;4.7;;;;;;;;;;;;;
2023/07/19 02:00:40;;;;;;;8.7;4.7;;;;;;;;;;;;;
2023/07/19 02:03:08;;;;;;;10.3;5.1;;;;;;;;;;;;;
2023/07/19 02:05:33;;;;;;;10.4;5.3;;;;;;;;;;;;;
2023/07/19 02:07:58;;;;;;;10.4;4.9;;;;;;;;;;;;;
2023/07/19 02:10:23;;;;;;;11.1;4.9;;;;;;;;;;;;;
2023/07/19 02:12:49;;;;;;;8.2;4.7;;;;;;;;;;;;;
2023/07/19 02:15:15;;;;;;;9.3;4.6;;;;;;;;;;;;;
2023/07/19 02:17:43;;;;;;;9.9;4.7;;;;;;;;;;;;;
2023/07/19 02:20:08;;;;;;;10.2;4.5;;;;;;;;;;;;;
2023/07/19 02:22:34;;;;;;;9;4.4;;;;;;;;;;;;;
2023/07/19 02:24:59;;;;;;;10.1;4.7;;;;;;;;;;;;;
2023/07/19 02:27:25;;;;;;;11.2;4.8;;;;;;;;;;;;;
2023/07/19 02:29:50;;;;;;;11.5;5;;;;;;;;;;;;;
2023/07/19 02:32:15;;;;;;;9.2;4.9;;;;;;;;;;;;;
2023/07/19 02:34:40;;;;;;;11.2;5;;;;;;;;;;;;;
2023/07/19 02:37:07;;;;;;;10.2;4.9;;;;;;;;;;;;;
2023/07/19 02:39:33;;;;;;;13.1;5.4;;;;;;;;;;;;;
2023/07/19 02:41:58;;;;;;;8.9;4.5;;;;;;;;;;;;;
2023/07/19 02:44:23;;;;;;;12;5;;;;;;;;;;;;;
2023/07/19 02:46:48;;;;;;;10;5.4;;;;;;;;;;;;;
2023/07/19 02:49:14;;;;;;;10;4.7;;;;;;;;;;;;;
2023/07/19 02:51:39;;;;;;;11.7;5.1;;;;;;;;;;;;;
2023/07/19 02:54:06;;;;;;;8.8;4.7;;;;;;;;;;;;;
2023/07/19 02:56:31;;;;;;;12.7;5.8;;;;;;;;;;;;;
2023/07/19 02:58:56;;;;;;;10.9;5;;;;;;;;;;;;;
2023/07/19 03:01:21;;;;;;;11.4;4.9;;;;;;;;;;;;;
2023/07/19 03:03:48;;;;;;;8.3;4.5;;;;;;;;;;;;;
2023/07/19 03:06:13;;;;;;;9.7;4.7;;;;;;;;;;;;;
2023/07/19 03:08:40;;;;;;;11.9;4.8;;;;;;;;;;;;;
2023/07/19 03:11:06;;;;;;;8.4;5;;;;;;;;;;;;;
2023/07/19 03:13:31;;;;;;;8.8;4.5;;;;;;;;;;;;;
2023/07/19 03:15:56;;;;;;;9.2;4.6;;;;;;;;;;;;;
2023/07/19 03:18:22;;;;;;;9.1;4.4;;;;;;;;;;;;;
2023/07/19 03:20:47;;;;;;;9.3;5;;;;;;;;;;;;;
2023/07/19 03:23:14;;;;;;;7.7;4.8;;;;;;;;;;;;;
2023/07/19 03:25:39;;;;;;;10.5;4.8;;;;;;;;;;;;;
2023/07/19 03:28:04;;;;;;;9.1;4.8;;;;;;;;;;;;;
2023/07/19 03:30:30;;;;;;;12.3;5.3;;;;;;;;;;;;;
2023/07/19 03:32:58;;;;;;;8.4;5.1;;;;;;;;;;;;;
2023/07/19 03:35:23;;;;;;;10;5.7;;;;;;;;;;;;;
2023/07/19 03:37:49;;;;;;;11.7;5.5;;;;;;;;;;;;;
2023/07/19 03:40:14;;;;;;;10.3;4.9;;;;;;;;;;;;;
2023/07/19 03:42:41;;;;;;;11.1;5.3;;;;;;;;;;;;;
2023/07/19 03:45:06;;;;;;;10.6;5.7;;;;;;;;;;;;;
2023/07/19 03:47:34;;;;;;;10.8;5.1;;;;;;;;;;;;;
2023/07/19 03:49:59;;;;;;;13;5.2;;;;;;;;;;;;;
2023/07/19 03:52:27;;;;;;;9.4;5.4;;;;;;;;;;;;;
2023/07/19 03:54:52;;;;;;;9.5;5.2;;;;;;;;;;;;;
2023/07/19 03:57:17;;;;;;;10.7;4.8;;;;;;;;;;;;;
2023/07/19 03:59:42;;;;;;;10.4;5;;;;;;;;;;;;;
2023/07/19 04:02:34;;;;;;;8;4.9;;;;;;;19.18;100;937.554;;;;
2023/07/19 04:04:59;;;;;;;10.7;4.9;;;;;;;19.13;100;937.2112;;;;
2023/07/19 04:07:25;;;;;;;9.6;5;;;;;;;18.91;100;937.1948;;;;
2023/07/19 04:09:59;;;;;;;9.3;5.4;;;;;;;18.97;100;937.3992;;;;
2023/07/19 04:12:29;;;;;;;7.7;4.7;;;;;;;19;100;937.4847;;;;
2023/07/19 04:14:56;;;;;;;7.8;4.7;;;;;;;19.04;100;937.6397;;;;
2023/07/19 04:17:21;;;;;;;8.3;5;;;;;;;19.12;100;937.4949;;;;
2023/07/19 04:19:47;;;;;;;10.3;5;;;;;;;18.99;100;937.3404;;;;
2023/07/19 04:22:13;;;;;;;9.7;4.7;;;;;;;19.16;100;937.2542;;;;
2023/07/19 04:24:37;;;;;;;10.1;5.2;;;;;;;19.21;100;937.425;;;;
2023/07/19 04:27:05;;;;;;;9.9;5.2;;;;;;;19.13;100;937.2559;;;;
2023/07/19 04:29:30;;;;;;;10.1;5;;;;;;;19.15;100;937.4183;;;;
2023/07/19 04:31:59;;;;;;;9.3;4.7;;;;;;;19.04;100;937.5955;;;;
2023/07/19 04:34:30;;;;;;;11.7;5.1;;;;;;;19.03;100;937.4948;;;;
2023/07/19 04:36:55;;;;;;;9.8;5.5;;;;;;;19.15;100;937.3408;;;;
2023/07/19 04:39:24;;;;;;;7.5;4.5;;;;;;;19.14;100;937.3789;;;;
2023/07/19 04:41:56;;;;;;;10.8;4.8;;;;;;;19.2;100;937.5276;;;;
2023/07/19 04:44:22;;;;;;;7.5;4.9;;;;;;;19.19;100;937.5539;;;;
2023/07/19 04:46:47;;;;;;;10.2;4.6;;;;;;;19.32;100;937.7438;;;;
2023/07/19 04:49:12;;;;;;;9.5;4.6;;;;;;;19.44;100;937.7191;;;;
2023/07/19 04:51:38;;;;;;;8.8;5.2;;;;;;;19.18;100;937.538;;;;
2023/07/19 04:54:03;;;;;;;8.1;4.9;;;;;;;19.32;100;937.5598;;;;
2023/07/19 04:56:32;;;;;;;8.2;4.8;;;;;;;19.23;100;937.486;;;;
2023/07/19 04:58:57;;;;;;;7.7;4.2;;;;;;;19.24;100;937.4883;;;;
2023/07/19 05:01:28;;;;;;;10.4;4.8;;;;;;;19.22;100;937.4797;;;;
2023/07/19 05:03:59;;;;;;;6;4.4;;;;;;;19.25;100;937.5041;;;;
2023/07/19 05:06:26;;;;;;;7.8;4.4;;;;;;;19.47;100;937.6685;;;;
2023/07/19 05:08:51;;;;;;;7.7;4.2;;;;;;;19.6;100;937.2001;;;;
2023/07/19 05:11:22;;;;;;;8.7;4;;;;;;;19.65;100;937.0292;;;;
2023/07/19 05:13:45;;;;;;;9.2;4.7;;;;;;;19.65;100;937.153;;;;
2023/07/19 05:16:13;;;;;;;8.1;4.6;;;;;;;19.64;100;937.2484;;;;
2023/07/19 05:18:38;;;;;;;9.6;4.8;;;;;;;19.66;100;937.1696;;;;
2023/07/19 05:21:06;;;;;;;11.4;4.7;;;;;;;19.6;100;937.402;;;;
2023/07/19 05:23:31;;;;;;;12.1;4.9;;;;;;;19.73;100;937.3455;;;;
2023/07/19 05:26:00;;;;;;;10.2;4.8;;;;;;;19.66;100;937.323;;;;
2023/07/19 05:28:25;;;;;;;8.6;4.7;;;;;;;19.52;100;937.4216;;;;
2023/07/19 05:30:51;;;;;;;8.4;4.4;;;;;;;19.64;100;937.5611;;;;
2023/07/19 05:33:17;;;;;;;9.7;4.7;;;;;;;19.59;100;937.7858;;;;
2023/07/19 05:35:47;;;;;;;7.8;4.6;;;;;;;19.65;100;937.3831;;;;
2023/07/19 05:38:12;;;;;;;8.4;4.7;;;;;;;19.6;100;937.3405;;;;
2023/07/19 05:40:42;;;;;;;8.1;4.9;;;;;;;19.62;100;937.4774;;;;
2023/07/19 05:43:10;;;;;;;10.4;4.8;;;;;;;19.51;100;937.2863;;;;
2023/07/19 05:45:35;;;;;;;9.9;6;;;;;;;19.23;100;937.4327;;;;
2023/07/19 05:48:57;;;;;;;9.3;5.9;;;;;;;19.56;100;937.3772;;;;
2023/07/19 05:51:27;;;;;;;6.8;4.1;;;;;;;20.21;100;937.3525;;;;
2023/07/19 05:53:56;;;;;;;9.8;5.2;;;;;;;20.61;100;937.1772;;;;
2023/07/19 05:56:28;;;;;;;10.8;5.2;;;;;;;21.48;95.89063;937.1944;;;;
2023/07/19 05:58:56;;;;;;;9.6;4.7;;;;;;;22.21;89.98242;937.4228;;;;
2023/07/19 06:01:24;;;;;;;8.8;4.3;;;;;;;22.01;87.83398;937.2559;;;;
2023/07/19 06:03:57;;;;;;;5.9;3.8;;;;;;;22;87.38477;937.304;;;;
2023/07/19 06:06:22;;;;;;;8.2;4.2;;;;;;;21.9;87.05078;937.2175;;;;
2023/07/19 06:08:50;;;;;;;6;3.5;;;;;;;22.19;90.05078;937.2083;;;;
2023/07/19 06:11:23;;;;;;;7.9;3.3;;;;;;;23.21;84.74609;937.08;;;;
2023/07/19 06:13:51;;;;;;;7.8;3.3;;;;;;;24.39;78.54883;937.1881;;;;
2023/07/19 06:16:18;;;;;;;6.6;3;;;;;;;25.09;74.69238;937.2188;;;;
2023/07/19 06:18:46;;;;;;;5.6;3.1;;;;;;;25.76;70.32617;937.2762;;;;
2023/07/19 06:21:16;;;;;;;6;3.2;;;;;;;26.26;70.19238;937.238;;;;
2023/07/19 06:23:42;;;;;;;6.3;2.8;;;;;;;26.5;68.45313;937.2512;;;;
2023/07/19 06:26:11;;;;;;;6.5;3.1;;;;;;;26.57;65.98926;937.2333;;;;
2023/07/19 06:28:37;;;;;;;7.1;3;;;;;;;25.98;66.37598;937.202;;;;
2023/07/19 06:31:04;;;;;;;6.6;3;;;;;;;25.04;71.42969;937.2575;;;;
2023/07/19 06:33:30;;;;;;;4.6;3.1;;;;;;;24.44;75.20996;937.1057;;;;
2023/07/19 06:36:00;;;;;;;7.6;3.1;;;;;;;23.83;77.25977;937.0609;;;;
2023/07/19 06:38:30;;;;;;;5.9;3.4;;;;;;;23.2;78.71484;937.0193;;;;
2023/07/19 06:41:03;;;;;;;7.3;3.4;;;;;;;22.89;82.92285;937.2213;;;;
2023/07/19 06:43:35;;;;;;;8.1;3.6;;;;;;;22.61;85.96875;937.3716;;;;
2023/07/19 06:46:04;;;;;;;7.2;3.5;;;;;;;22.38;87.90723;937.63;;;;
2023/07/19 06:48:29;;;;;;;7.8;3.8;;;;;;;22.08;91.31836;937.6641;;;;
2023/07/19 06:50:58;;;;;;;5.9;3.3;;;;;;;22.1;91.83789;937.772;;;;
2023/07/19 06:53:22;;;;;;;6.5;4;;;;;;;21.89;92.625;937.7014;;;;
2023/07/19 06:55:52;;;;;;;6;4.1;;;;;;;21.62;92.23047;937.5405;;;;
2023/07/19 06:58:15;;;;;;;9.8;4.8;;;;;;;21.73;96.2334;937.6766;;;;
2023/07/19 07:00:41;;;;;;;5.8;3.5;;;;;;;23.3;87.27832;937.7208;;;;
2023/07/19 07:03:06;;;;;;;7.3;3.4;;;;;;;25.02;78.58984;937.707;;;;
2023/07/19 07:05:38;;;;;;;7.9;3.4;;;;;;;26.44;70.93066;937.6724;;;;
2023/07/19 07:08:07;;;;;;;8.4;3.4;;;;;;;27.37;70.2002;937.6429;;;;
2023/07/19 07:10:31;;;;;;;5;2.9;;;;;;;27.47;67.33301;937.6967;;;;
2023/07/19 07:13:01;;;;;;;5.4;2.8;;;;;;;27.4;64.72266;937.7374;;;;
2023/07/19 07:15:26;;;;;;;6.1;3.3;;;;;;;27.61;65.35938;937.7117;;;;
2023/07/19 07:17:59;;;;;;;6;3.3;;;;;;;27.61;63.49609;937.7198;;;;
2023/07/19 07:20:32;;;;;;;6;3.2;;;;;;;27.46;64.4707;937.7531;;;;
2023/07/19 07:23:05;;;;;;;6.1;2.8;;;;;;;26.89;65.1123;937.8311;;;;
2023/07/19 07:25:38;;;;;;;4.9;3.2;;;;;;;25.82;68.04102;937.7653;;;;
2023/07/19 07:28:04;;;;;;;5.5;3.3;;;;;;;25.46;70.32617;937.7099;;;;
2023/07/19 07:30:32;;;;;;;5.8;3;;;;;;;26.36;71.61523;937.7818;;;;
2023/07/19 07:33:01;;;;;;;6.6;3.5;;;;;;;26.64;67.2793;937.7566;;;;
2023/07/19 07:35:28;;;;;;;5.6;3;;;;;;;27.09;67.72656;937.7283;;;;
2023/07/19 07:37:59;;;;;;;5.8;3.3;;;;;;;27.42;67.13477;937.7899;;;;
2023/07/19 07:40:29;;;;;;;4;3;;;;;;;26.33;69.04297;937.7076;;;;
2023/07/19 07:42:58;;;;;;;5.9;3.5;;;;;;;25.88;70.84277;937.6404;;;;
2023/07/19 07:45:27;;;;;;;6.4;3.3;;;;;;;25.81;72.61621;937.7256;;;;
2023/07/19 07:47:54;;;;;;;4.9;3.4;;;;;;;27.06;66.3457;937.7503;;;;
2023/07/19 07:50:29;;;;;;;4.5;3.1;;;;;;;27.78;68.11523;937.6705;;;;
2023/07/19 07:53:00;;;;;;;6;3.3;;;;;;;28.48;60.33789;937.5668;;;;
2023/07/19 07:55:27;;;;;;;7.1;3.2;;;;;;;29.36;62.01563;937.4753;;;;
2023/07/19 07:57:57;;;;;;;4.4;3.2;;;;;;;29.35;59.95313;937.4252;;;;
2023/07/19 08:00:30;;;;;;;6.5;3.2;;;;;;;28.88;60.36719;937.3502;;;;
2023/07/19 08:02:55;;;;;;;5.6;3.4;;;;;;;29.12;57.14844;937.2819;;;;
2023/07/19 08:05:21;;;;;;;5.4;3;;;;;;;30.48;54.3584;937.3485;;;;
2023/07/19 08:07:52;;;;;;;4.6;3.2;;;;;;;30.99;52.20703;937.3019;;;;
2023/07/19 08:10:20;;;;;;;5.7;3.7;;;;;;;31.69;53.87012;937.2075;;;;
2023/07/19 08:12:51;;;;;;;5.5;3;;;;;;;30.39;55.79297;937.2188;;;;
2023/07/19 08:15:24;;;;;;;4.1;2.8;;;;;;;32.11;50.23828;937.1281;;;;
2023/07/19 08:17:48;;;;;;;6.2;3.1;;;;;;;33.25;47.43262;937.1225;;;;
2023/07/19 08:20:20;;;;;;;5.7;3.3;;;;;;;31.63;51.53809;937.0828;;;;
2023/07/19 08:22:47;;;;;;;3.9;3;;;;;;;31.3;51.45215;937.2353;;;;
2023/07/19 08:25:11;;;;;;;5.2;3.2;;;;;;;30.95;53.66211;937.2775;;;;
2023/07/19 08:27:37;;;;;;;4.5;3;;;;;;;30.35;56.3252;937.2924;;;;
2023/07/19 08:30:15;;;;;;;6.2;3.5;;;;;;;29.68;56.91992;937.1555;;;;
2023/07/19 08:32:36;;;;;;;4.5;3.4;;;;;;;27.81;60.39063;937.1217;;;;
2023/07/19 08:35:02;;;;;;;6;3.3;;;;;;;28.16;58.38086;937.1146;;;;
2023/07/19 08:37:33;;;;;;;6.5;3.3;;;;;;;27.88;60.23242;937.0787;;;;
2023/07/19 08:40:03;;;;;;;5;3.2;;;;;;;27.34;62.84082;937.1667;;;;
2023/07/19 08:42:30;;;;;;;5.3;3.5;;;;;;;26.9;70.17285;937.1791;;;;
2023/07/19 08:45:00;;;;;;;4.4;3.4;;;;;;;26.58;69.89844;937.1077;;;;
2023/07/19 08:47:34;;;;;;;8.2;4.1;;;;;;;26.15;69.65527;937.0898;;;;
2023/07/19 08:50:04;;;;;;;7.5;3.9;;;;;;;26.14;73.20117;937.0645;;;;
2023/07/19 08:52:30;;;;;;;5.7;3.6;;;;;;;26.74;72.78906;936.9581;;;;
2023/07/19 08:54:58;;;;;;;6.1;3.6;;;;;;;28;63.09961;936.9627;;;;
2023/07/19 08:57:23;;;;;;;6.7;3.8;;;;;;;29.13;59.91113;936.9117;;;;
2023/07/19 08:59:50;;;;;;;5.7;3.6;;;;;;;29.71;54.31348;936.8667;;;;
2023/07/19 09:02:18;;;;;;;5.4;4.5;;;;;;;30.52;55.0791;936.8522;;;;
2023/07/19 09:04:43;;;;;;;5.4;3.4;;;;;;;31.21;53.75195;936.8875;;;;
2023/07/19 09:07:13;;;;;;;5;3.5;;;;;;;31.48;55.35156;936.8685;;;;
2023/07/19 09:09:40;;;;;;;5.2;3.4;;;;;;;30.73;55.35645;936.9484;;;;
2023/07/19 09:12:07;;;;;;;5.6;3.7;;;;;;;31.48;54.94434;936.9745;;;;
2023/07/19 09:14:32;;;;;;;6.1;3.7;;;;;;;31.82;49.21191;936.9572;;;;
2023/07/19 09:16:58;;;;;;;5.5;3.9;;;;;;;31.81;50.28906;936.9833;;;;
2023/07/19 09:19:23;;;;;;;5.1;3.2;;;;;;;32.78;49.00293;937.0806;;;;
2023/07/19 09:21:49;;;;;;;6.4;3.9;;;;;;;33.3;47.70215;937.0606;;;;
2023/07/19 09:24:15;;;;;;;5;3.6;;;;;;;33.09;47.54785;936.9897;;;;
2023/07/19 09:26:40;;;;;;;5.2;4;;;;;;;32.91;48.33301;936.915;;;;
2023/07/19 09:29:05;;;;;;;7.4;4;;;;;;;32.53;48.61719;936.8708;;;;
2023/07/19 09:31:31;;;;;;;3.9;3.5;;;;;;;33.4;46.6543;936.8901;;;;
2023/07/19 09:33:56;;;;;;;5.8;4.4;;;;;;;33.48;47.27637;936.8606;;;;
2023/07/19 09:36:25;;;;;;;5.7;4.1;;;;;;;33.4;45.93359;936.861;;;;
2023/07/19 09:38:50;;;;;;;6.6;3.9;;;;;;;32.34;51.36719;936.7059;;;;
2023/07/19 09:41:16;;;;;;;6.1;4.4;;;;;;;30.87;54.97949;936.6803;;;;
2023/07/19 09:43:45;;;;;;;5.1;4.2;;;;;;;30.58;56.3291;936.5668;;;;
2023/07/19 09:46:10;;;;;;;5.9;3.9;;;;;;;31.04;57.2832;936.4655;;;;
2023/07/19 09:48:38;;;;;;;6;4;;;;;;;31.08;53.84375;936.397;;;;
2023/07/19 09:51:04;;;;;;;4.7;3.8;;;;;;;30.46;58.45117;936.3837;;;;
2023/07/19 09:53:32;;;;;;;5.6;4.5;;;;;;;30.26;55.45313;936.267;;;;
2023/07/19 09:55:57;;;;;;;5.7;4.6;;;;;;;30.06;60.84766;936.3214;;;;
2023/07/19 09:58:28;;;;;;;6.1;4.3;;;;;;;29.35;61.58594;936.3336;;;;
2023/07/19 10:00:56;;;;;;;6.2;4.3;;;;;;;30.1;59.00098;936.2598;;;;
2023/07/19 10:03:22;;;;;;;5.9;4.2;;;;;;;30.37;56.20801;936.2104;;;;
2023/07/19 10:05:51;;;;;;;5.3;4.2;;;;;;;30.71;57.85059;936.1478;;;;
2023/07/19 10:08:22;;;;;;;6.7;4.6;;;;;;;31.53;54.81836;936.1627;;;;
2023/07/19 10:10:47;;;;;;;5.7;4.3;;;;;;;30.66;58.63281;936.1834;;;;
2023/07/19 10:13:14;;;;;;;6.8;4.3;;;;;;;30.5;57.63379;936.0847;;;;
2023/07/19 10:15:45;;;;;;;5.2;4.3;;;;;;;30.1;60.63672;936.0834;;;;
2023/07/19 10:18:11;;;;;;;5.2;4.4;;;;;;;30.65;59.30176;936.0276;;;;
2023/07/19 10:20:36;;;;;;;4.6;3.9;;;;;;;31.11;58.22559;935.9584;;;;
2023/07/19 10:23:06;;;;;;;49.7;15.9;;;;;;;31.52;55.05762;935.9755;;;;
2023/07/19 10:25:37;;;;;;;6.8;4.7;;;;;;;31.3;55.61719;935.8336;;;;
2023/07/19 10:28:02;;;;;;;5.9;4.4;;;;;;;31.34;55.22656;935.8705;;;;
2023/07/19 10:30:31;;;;;;;6.6;4.5;;;;;;;30.57;57.21191;935.7668;;;;
2023/07/19 10:32:56;;;;;;;6.7;4.4;;;;;;;30.41;57.52734;935.725;;;;
2023/07/19 10:35:27;;;;;;;5.8;4.3;;;;;;;29.29;61.26855;935.7494;;;;
2023/07/19 10:37:57;;;;;;;6.8;4.5;;;;;;;29.33;58.60449;935.8434;;;;
2023/07/19 10:40:22;;;;;;;6.4;4.3;;;;;;;29.9;57.11426;935.82;;;;
2023/07/19 10:42:56;;;;;;;8.2;4.8;;;;;;;30.25;56.37109;935.8287;;;;
2023/07/19 10:45:25;;;;;;;6;4.5;;;;;;;30.68;54.60938;935.7808;;;;
2023/07/19 10:47:47;;;;;;;6.9;4.6;;;;;;;30.66;56.31543;935.772;;;;
2023/07/19 10:50:17;;;;;;;6.7;4.3;;;;;;;30.02;60.00586;935.8641;;;;
2023/07/19 10:52:42;;;;;;;6.4;4.8;;;;;;;30.51;55.97363;935.8575;;;;
2023/07/19 10:55:16;;;;;;;6.5;4.4;;;;;;;30.68;55.66016;935.7489;;;;
2023/07/19 10:57:49;;;;;;;6;4.5;;;;;;;31.01;55.74902;935.73;;;;
2023/07/19 11:00:24;;;;;;;8.2;4.8;;;;;;;31.59;52.68457;935.7467;;;;
2023/07/19 11:02:50;;;;;;;4.9;4.2;;;;;;;31.67;52.78809;935.7811;;;;
2023/07/19 11:05:15;;;;;;;5.5;4.3;;;;;;;31.47;52.70605;935.7988;;;;
2023/07/19 11:07:45;;;;;;;8;4.5;;;;;;;30.67;52.37402;935.7433;;;;
2023/07/19 11:10:18;;;;;;;6.7;4.6;;;;;;;29.39;54.69238;935.8442;;;;
2023/07/19 11:12:48;;;;;;;6.1;4.3;;;;;;;29.98;56.73145;935.8144;;;;
2023/07/19 11:15:13;;;;;;;6.7;4.5;;;;;;;29.73;58.98926;935.8225;;;;
2023/07/19 11:17:44;;;;;;;6.7;4.1;;;;;;;30.11;53.76563;935.71;;;;
2023/07/19 11:20:19;;;;;;;7;4.7;;;;;;;29.51;55.96973;935.7715;;;;
2023/07/19 11:22:45;;;;;;;5.8;4.3;;;;;;;29.08;57.42871;935.7346;;;;
2023/07/19 11:25:11;;;;;;;5.8;4.7;;;;;;;28.98;60.41504;935.7715;;;;
2023/07/19 11:27:40;;;;;;;5.5;4.3;;;;;;;28.75;58.39746;935.7227;;;;
2023/07/19 11:30:05;;;;;;;7.7;4.6;;;;;;;29.09;59.82324;935.7742;;;;
2023/07/19 11:32:33;;;;;;;7;4.5;;;;;;;29.26;61.2041;935.7442;;;;
2023/07/19 11:35:03;;;;;;;7.7;4.7;;;;;;;29.66;55.01074;935.699;;;;
2023/07/19 11:37:36;;;;;;;6.6;4.5;;;;;;;29.99;54.07227;935.6517;;;;
2023/07/19 11:40:02;;;;;;;4.8;4.1;;;;;;;29.77;55.81055;935.6962;;;;
2023/07/19 11:42:24;;;;;;;7.6;4.4;;;;;;;29.43;60.16504;935.6403;;;;
2023/07/19 11:44:55;;;;;;;7.4;4.6;;;;;;;29.33;59.29395;935.4871;;;;
2023/07/19 11:47:31;;;;;;;7.1;4.7;;;;;;;29.17;53.81934;935.522;;;;
2023/07/19 11:50:00;;;;;;;6.4;4.6;;;;;;;29.12;57.00586;935.5497;;;;
2023/07/19 11:52:30;;;;;;;7.1;5.1;;;;;;;28.95;58.36328;935.5649;;;;
2023/07/19 11:54:55;;;;;;;6.6;4.4;;;;;;;28.72;54.76465;935.3438;;;;
2023/07/19 11:57:21;;;;;;;6;4.3;;;;;;;28.4;56.67676;935.3187;;;;
2023/07/19 11:59:48;;;;;;;7.2;4.8;;;;;;;28.48;57.2334;935.2128;;;;
2023/07/19 12:02:13;;;;;;;8;5;;;;;;;28.49;62.27734;935.2017;;;;
2023/07/19 12:04:45;;;;;;;6.3;4.3;;;;;;;29.2;55.2041;935.2586;;;;
2023/07/19 12:07:11;;;;;;;7.3;4.5;;;;;;;29.37;58.60938;935.3084;;;;
2023/07/19 12:09:36;;;;;;;6.3;4.6;;;;;;;29.42;56.8877;935.4228;;;;
2023/07/19 12:12:03;;;;;;;6.2;4.4;;;;;;;29.88;52.56738;935.3624;;;;
2023/07/19 12:14:28;;;;;;;6.2;4;;;;;;;29.96;53.47266;935.3457;;;;
2023/07/19 12:16:54;;;;;;;5.9;4;;;;;;;30.19;53.27148;935.3435;;;;
2023/07/19 12:19:24;;;;;;;9.7;5.1;;;;;;;30.1;53.72754;935.3191;;;;
2023/07/19 12:21:48;;;;;;;6.3;4.4;;;;;;;30.1;50.93457;935.2978;;;;
2023/07/19 12:24:16;;;;;;;6.1;4.6;;;;;;;30.16;52.82715;935.3474;;;;
2023/07/19 12:26:41;;;;;;;6.2;4.6;;;;;;;29.82;54.87402;935.3022;;;;
2023/07/19 12:29:11;;;;;;;6.5;4.4;;;;;;;29.51;55.67188;935.2648;;;;
2023/07/19 12:31:36;;;;;;;6.6;4.5;;;;;;;29.59;52.41504;935.2418;;;;
2023/07/19 12:34:03;;;;;;;5.9;4.5;;;;;;;29.62;52.93066;935.2659;;;;
2023/07/19 12:36:29;;;;;;;6.3;4.5;;;;;;;29.54;53.62402;935.2837;;;;
2023/07/19 12:38:58;;;;;;;8.8;4.4;;;;;;;29.45;51.99414;935.2405;;;;
2023/07/19 12:41:23;;;;;;;16.9;6.6;;;;;;;29.38;52.40234;935.1932;;;;
2023/07/19 12:43:53;;;;;;;10.1;5.4;;;;;;;29.17;54.84375;935.1389;;;;
2023/07/19 12:46:19;;;;;;;7.3;4.9;;;;;;;28.94;53.66211;935.2272;;;;
2023/07/19 12:48:48;;;;;;;14.6;6;;;;;;;28.91;54.07422;935.1816;;;;
2023/07/19 12:51:12;;;;;;;7.4;4.9;;;;;;;28.46;54.97266;935.0825;;;;
2023/07/19 12:53:42;;;;;;;8.9;5.2;;;;;;;28.6;56.90234;935.08;;;;
2023/07/19 12:56:10;;;;;;;12.1;6.1;;;;;;;28.84;54.7207;935.0261;;;;
2023/07/19 12:58:35;;;;;;;8.8;5;;;;;;;29.01;53.68066;934.9453;;;;
2023/07/19 13:01:05;;;;;;;7.8;5.1;;;;;;;29.13;54.38574;934.8557;;;;
2023/07/19 13:03:36;;;;;;;9.2;4.9;;;;;;;29.3;53.60938;934.8594;;;;
2023/07/19 13:06:05;;;;;;;10.7;5.8;;;;;;;29.44;53.08887;934.8674;;;;
2023/07/19 13:08:30;;;;;;;9.7;5;;;;;;;29.68;51.25684;934.8752;;;;
2023/07/19 13:10:59;;;;;;;7.4;4.6;;;;;;;30.18;52.91309;934.8908;;;;
2023/07/19 13:13:25;;;;;;;7.1;4.5;;;;;;;30.22;56.12891;934.9214;;;;
2023/07/19 13:15:49;;;;;;;7.4;4.6;;;;;;;30.09;58.18945;934.9858;;;;
2023/07/19 13:18:16;;;;;;;6.1;4.4;;;;;;;29.78;56.73047;935.0539;;;;
2023/07/19 13:20:41;;;;;;;6.7;4.7;;;;;;;29.34;58.21094;934.9827;;;;
2023/07/19 13:23:08;;;;;;;6.1;4.6;;;;;;;29.02;60.79102;934.9528;;;;
2023/07/19 13:25:33;;;;;;;6.2;4.8;;;;;;;29.17;57.2959;934.8719;;;;
2023/07/19 13:28:01;;;;;;;7;4.3;;;;;;;28.57;61.26465;934.9778;;;;
2023/07/19 13:30:26;;;;;;;7.6;4.7;;;;;;;28.01;65.39453;935.2296;;;;
2023/07/19 13:32:55;;;;;;;9.2;5.2;;;;;;;27.13;68.57324;935.3918;;;;
2023/07/19 13:35:24;;;;;;;8.4;5.1;;;;;;;26.03;70.66406;935.1174;;;;
2023/07/19 13:37:50;;;;;;;8.9;5.8;;;;;;;25.74;75.33496;935.1326;;;;
2023/07/19 13:40:15;;;;;;;7.8;5.1;;;;;;;25.34;76.83691;935.3408;;;;
2023/07/19 13:42:45;;;;;;;8;5.2;;;;;;;25.14;77.27441;935.3931;;;;
2023/07/19 13:45:19;;;;;;;8.4;5.5;;;;;;;25.11;77.38672;935.2636;;;;
2023/07/19 13:47:47;;;;;;;6.9;5.1;;;;;;;25.12;77.86328;935.3124;;;;
2023/07/19 13:51:18;;;;;;;8;5.2;;;;;;;25;79.0918;935.2183;;;;
2023/07/19 13:53:47;;;;;;;10.1;5.5;;;;;;;25.07;80.79199;935.0934;;;;
2023/07/19 13:56:12;;;;;;;9.9;5.6;;;;;;;25.24;82.09863;935.0508;;;;
2023/07/19 13:58:42;;;;;;;10.4;5.6;;;;;;;25.36;80.41992;935.0801;;;;
2023/07/19 14:01:05;;;;;;;9.6;5.2;;;;;;;25.18;80.72949;935.0859;;;;
2023/07/19 14:06:15;;;;;;;6.6;5.4;;;;;;;25.27;80.75781;934.9458;;;;
2023/07/19 14:08:41;;;;;;;9;5.7;;;;;;;25.35;80.25098;934.9303;;;;
2023/07/19 14:11:05;;;;;;;8.8;5.2;;;;;;;25.44;79.8418;934.8361;;;;
2023/07/19 14:22:23;;;;;;;6.7;5.1;;;;;;;24.77;83.93262;934.8689;;;;
2023/07/19 14:24:52;;;;;;;5.9;4.7;;;;;;;24.79;85.25684;934.9598;;;;
2023/07/19 14:27:17;;;;;;;8.1;4.9;;;;;;;24.91;83.12109;934.9988;;;;
2023/07/19 14:29:43;;;;;;;7.8;5;;;;;;;24.94;83.48145;935.0778;;;;
2023/07/19 14:32:08;;;;;;;7.9;5.6;;;;;;;24.84;84.75;935.1859;;;;
2023/07/19 14:34:38;;;;;;;6.3;5;;;;;;;24.25;85.93457;935.1895;;;;
2023/07/19 14:37:03;;;;;;;8;5.1;;;;;;;23.94;86.56641;935.2668;;;;
2023/07/19 14:39:28;;;;;;;9.5;5.8;;;;;;;24.02;84.4043;935.2548;;;;
2023/07/19 14:41:57;;;;;;;8.4;5.5;;;;;;;24;83.64941;935.2864;;;;
2023/07/19 14:44:28;;;;;;;8.3;5.5;;;;;;;23.79;81.87891;935.4028;;;;
2023/07/19 14:46:52;;;;;;;8.1;5.4;;;;;;;23.93;79.3623;935.4304;;;;
2023/07/19 14:49:19;;;;;;;7;4;;;;;;;24;71.20508;935.3817;;;;
2023/07/19 14:51:44;;;;;;;5.9;3.9;;;;;;;24.03;67.29883;935.2358;;;;
2023/07/19 14:54:14;;;;;;;4.9;3.9;;;;;;;24.26;66.34473;935.1894;;;;
2023/07/19 14:56:40;;;;;;;5.7;3.5;;;;;;;24.33;63.39648;935.1442;;;;
2023/07/19 14:59:09;;;;;;;4.4;3.4;;;;;;;24.25;59.97168;935.087;;;;
2023/07/19 15:01:35;;;;;;;4.1;3.2;;;;;;;24.23;57.98926;935.085;;;;
2023/07/19 15:03:59;;;;;;;4.7;3.2;;;;;;;24.25;59.8291;935.0929;;;;
2023/07/19 15:06:29;;;;;;;7.2;3.3;;;;;;;24.38;58.9502;935.1238;;;;
2023/07/19 15:08:58;;;;;;;4.6;3.5;;;;;;;24.68;61.44238;935.1682;;;;
2023/07/19 15:11:23;;;;;;;4.9;3.1;;;;;;;24.82;62.51172;935.1055;;;;
2023/07/19 15:13:51;;;;;;;5;3.4;;;;;;;25.38;62.51953;934.993;;;;
2023/07/19 15:16:16;;;;;;;4.7;3.7;;;;;;;25.56;59.33105;934.9672;;;;
2023/07/19 15:18:43;;;;;;;5.3;3.5;;;;;;;25.93;60.65723;934.9494;;;;
2023/07/19 15:21:08;;;;;;;4.6;3.2;;;;;;;26.03;57.3252;934.8542;;;;
2023/07/19 15:23:39;;;;;;;4.3;3.2;;;;;;;25.98;56.08789;934.7892;;;;
2023/07/19 15:26:09;;;;;;;4.4;3.5;;;;;;;25.48;58.12891;934.9321;;;;
2023/07/19 15:28:38;;;;;;;5.9;3;;;;;;;25.33;59.64355;934.891;;;;
2023/07/19 15:31:04;;;;;;;4.3;3.2;;;;;;;25.35;58.83105;934.9356;;;;
2023/07/19 15:33:32;;;;;;;4.8;3.4;;;;;;;25.73;60.19434;934.8833;;;;
2023/07/19 15:35:58;;;;;;;4.8;3.5;;;;;;;25.72;59.36426;934.8783;;;;
2023/07/19 15:38:25;;;;;;;5.1;3.2;;;;;;;25.68;59.33594;934.83;;;;
2023/07/19 15:40:51;;;;;;;3.6;2.8;;;;;;;25.72;57.78125;934.8391;;;;
2023/07/19 15:43:15;;;;;;;4.6;3.5;;;;;;;25.69;58.43848;934.8695;;;;
2023/07/19 15:45:40;;;;;;;3.9;3.2;;;;;;;25.76;57.64355;934.8624;;;;
2023/07/19 15:48:05;;;;;;;6.2;3.6;;;;;;;25.83;56.39844;934.7543;;;;
2023/07/19 15:50:38;;;;;;;5;3.4;;;;;;;26.02;56.4834;934.6987;;;;
2023/07/19 15:53:10;;;;;;;4.6;3.5;;;;;;;26.25;56.91406;934.666;;;;
2023/07/19 15:55:35;;;;;;;4.8;3.4;;;;;;;26.33;57.69336;934.6926;;;;
2023/07/19 15:58:08;;;;;;;29.8;17.2;;;;;;;26.27;57.83984;934.7587;;;;
2023/07/19 16:00:33;;;;;;;28.5;15.2;;;;;;;26.44;59.48242;934.6844;;;;